Time;durP1;ratioP1;P1;durP2;ratioP2;P2;SDS_P1;SDS_P2;PMS_P1;PMS_P2;Temp;Humidity;BMP_temperature;BMP_pressure;BME280_temperature;BME280_humidity;BME280_pressure;Samples;Min_cycle;Max_cycle;Signal;HPM_P1;HPM_P2
2023/12/30 00:02:18;;;;;;;7.57;1.48;;;13.30;99.90;;;;;;4972640;28;20363;-75
2023/12/30 00:04:43;;;;;;;4.90;1.27;;;12.80;99.90;;;;;;4967811;28;20043;-75
2023/12/30 00:07:09;;;;;;;8.52;1.77;;;13.10;99.90;;;;;;4968419;28;20043;-75
2023/12/30 00:09:35;;;;;;;5.32;1.60;;;13.00;99.90;;;;;;4971527;28;20561;-76
2023/12/30 00:12:01;;;;;;;4.25;1.30;;;13.40;99.90;;;;;;4971695;28;20034;-75
2023/12/30 00:14:26;;;;;;;5.68;1.73;;;13.20;99.90;;;;;;4968857;28;20122;-75
2023/12/30 00:16:52;;;;;;;5.35;1.58;;;13.10;99.90;;;;;;4964937;28;20584;-75
2023/12/30 00:19:17;;;;;;;7.10;1.60;;;13.60;99.90;;;;;;4966425;28;20093;-76
2023/12/30 00:21:43;;;;;;;7.70;1.40;;;13.10;99.90;;;;;;4970314;28;20458;-76
2023/12/30 00:24:09;;;;;;;6.38;1.42;;;13.10;99.90;;;;;;4971748;28;20035;-76
2023/12/30 00:26:35;;;;;;;5.93;1.52;;;13.40;99.90;;;;;;4970712;28;20047;-75
2023/12/30 00:29:00;;;;;;;4.53;1.23;;;13.70;99.90;;;;;;4970074;28;22646;-75
2023/12/30 00:31:29;;;;;;;6.28;1.50;;;13.00;99.90;;;;;;4969236;28;20042;-75
2023/12/30 00:33:59;;;;;;;5.65;1.60;;;14.10;99.90;;;;;;4969649;28;20041;-77
2023/12/30 00:36:25;;;;;;;7.55;1.73;;;13.40;99.90;;;;;;4972308;28;20062;-75
2023/12/30 00:38:54;;;;;;;9.30;2.38;;;13.40;99.90;;;;;;4954920;28;20039;-76
2023/12/30 00:41:24;;;;;;;5.90;1.75;;;12.90;99.90;;;;;;4971774;28;20042;-75
2023/12/30 00:43:50;;;;;;;5.72;1.50;;;13.00;99.90;;;;;;4972037;28;20435;-76
2023/12/30 00:46:19;;;;;;;7.60;1.55;;;13.30;99.90;;;;;;4955676;28;20049;-76
2023/12/30 00:48:45;;;;;;;8.32;1.80;;;13.70;99.90;;;;;;4970747;28;20132;-76
2023/12/30 00:51:11;;;;;;;7.25;1.75;;;13.00;99.90;;;;;;4972951;28;20066;-76
2023/12/30 00:53:36;;;;;;;6.88;1.65;;;12.80;99.90;;;;;;4973221;28;20450;-77
2023/12/30 00:56:02;;;;;;;5.45;1.42;;;13.40;99.90;;;;;;4971128;28;20038;-76
2023/12/30 00:58:28;;;;;;;6.00;1.65;;;12.90;99.90;;;;;;4971231;28;20039;-74
2023/12/30 01:00:53;;;;;;;7.20;1.70;;;13.10;99.90;;;;;;4956871;28;20074;-76
2023/12/30 01:03:19;;;;;;;5.88;1.52;;;13.30;99.90;;;;;;4971546;28;20570;-76
2023/12/30 01:05:45;;;;;;;6.63;1.90;;;12.90;99.90;;;;;;4954841;28;20035;-76
2023/12/30 01:08:11;;;;;;;6.82;1.67;;;13.20;99.90;;;;;;4970917;28;20121;-76
2023/12/30 01:10:37;;;;;;;5.60;1.52;;;12.90;99.90;;;;;;4971926;28;20043;-78
2023/12/30 01:13:05;;;;;;;7.72;1.92;;;13.00;99.90;;;;;;4955156;28;20482;-76
2023/12/30 01:15:31;;;;;;;5.50;1.40;;;13.10;99.90;;;;;;4959808;28;20383;-75
2023/12/30 01:17:57;;;;;;;5.43;1.35;;;13.30;99.90;;;;;;4970518;28;20094;-76
2023/12/30 01:20:22;;;;;;;6.95;1.70;;;13.20;99.90;;;;;;4971149;28;20047;-76
2023/12/30 01:22:48;;;;;;;6.55;1.85;;;13.10;99.90;;;;;;4971246;28;20039;-76
2023/12/30 01:25:13;;;;;;;7.63;1.60;;;13.80;99.90;;;;;;4956589;28;20031;-76
2023/12/30 01:27:39;;;;;;;4.68;1.42;;;12.90;99.90;;;;;;4970555;28;20042;-76
2023/12/30 01:30:06;;;;;;;7.40;1.85;;;13.10;99.90;;;;;;4971502;28;20046;-75
2023/12/30 01:32:32;;;;;;;7.25;1.80;;;13.00;99.90;;;;;;4954841;28;20100;-76
2023/12/30 01:35:00;;;;;;;5.80;1.77;;;13.80;99.90;;;;;;4980624;28;20106;-76
2023/12/30 01:37:26;;;;;;;4.90;1.48;;;13.50;99.90;;;;;;4970085;28;20035;-76
2023/12/30 01:39:51;;;;;;;5.90;1.60;;;12.70;99.90;;;;;;4971520;28;20085;-76
2023/12/30 01:42:17;;;;;;;5.95;1.70;;;13.30;99.90;;;;;;4979060;28;20045;-76
2023/12/30 01:44:43;;;;;;;6.22;1.35;;;13.00;99.90;;;;;;4975383;28;20129;-76
2023/12/30 01:47:08;;;;;;;6.32;1.50;;;13.20;99.90;;;;;;4965646;28;20035;-76
2023/12/30 01:49:34;;;;;;;4.85;1.50;;;12.90;99.90;;;;;;4974526;28;20556;-76
2023/12/30 01:52:01;;;;;;;6.47;1.73;;;13.80;99.90;;;;;;4959230;28;20055;-76
2023/12/30 01:54:27;;;;;;;8.02;1.70;;;13.00;99.90;;;;;;4969919;28;20123;-76
2023/12/30 01:56:53;;;;;;;7.18;2.33;;;13.60;99.90;;;;;;4974439;28;20335;-76
2023/12/30 01:59:20;;;;;;;5.40;1.40;;;13.70;99.90;;;;;;4969969;28;20043;-77
2023/12/30 02:01:46;;;;;;;6.72;1.70;;;13.20;99.90;;;;;;5000539;28;20035;-76
2023/12/30 02:04:12;;;;;;;7.80;1.85;;;13.10;99.90;;;;;;4970659;28;20038;-76
2023/12/30 02:06:39;;;;;;;4.97;1.50;;;13.10;99.90;;;;;;4975028;28;20174;-76
2023/12/30 02:09:05;;;;;;;6.00;1.80;;;13.00;99.90;;;;;;4969630;28;20050;-76
2023/12/30 02:11:32;;;;;;;6.18;1.50;;;12.90;99.90;;;;;;4972314;28;20039;-77
2023/12/30 02:13:57;;;;;;;5.30;1.63;;;13.00;99.90;;;;;;4955146;28;20043;-77
2023/12/30 02:16:23;;;;;;;6.85;1.77;;;13.50;99.90;;;;;;4972408;28;20045;-76
2023/12/30 02:18:49;;;;;;;6.53;1.73;;;13.20;99.90;;;;;;4969503;28;20402;-77
2023/12/30 02:21:14;;;;;;;6.72;1.98;;;13.50;99.90;;;;;;4954074;28;20038;-77
2023/12/30 02:23:40;;;;;;;9.70;2.10;;;13.50;99.90;;;;;;4954200;28;20046;-77
2023/12/30 02:26:07;;;;;;;9.02;2.03;;;13.40;99.90;;;;;;4978273;28;20050;-76
2023/12/30 02:28:33;;;;;;;7.28;1.80;;;12.90;99.90;;;;;;4968708;28;20059;-76
2023/12/30 02:30:59;;;;;;;5.35;2.03;;;13.10;99.90;;;;;;4960237;28;20050;-76
2023/12/30 02:33:24;;;;;;;6.82;2.00;;;13.40;99.90;;;;;;4978702;28;20034;-76
2023/12/30 02:35:50;;;;;;;6.43;1.75;;;12.80;99.90;;;;;;4973782;28;20082;-76
2023/12/30 02:38:16;;;;;;;7.70;1.70;;;13.20;99.90;;;;;;4957171;28;20046;-76
2023/12/30 02:40:42;;;;;;;5.80;1.50;;;13.00;99.90;;;;;;4974545;28;20042;-76
2023/12/30 02:43:08;;;;;;;7.32;1.80;;;13.40;99.90;;;;;;4969543;28;20042;-76
2023/12/30 02:45:33;;;;;;;6.00;2.17;;;13.10;99.90;;;;;;4968593;28;20031;-76
2023/12/30 02:47:59;;;;;;;8.30;2.00;;;13.50;99.90;;;;;;4951309;28;20035;-76
2023/12/30 02:50:25;;;;;;;5.90;1.70;;;12.90;99.90;;;;;;4968868;28;20092;-76
2023/12/30 02:52:50;;;;;;;6.45;2.22;;;13.10;99.90;;;;;;4968039;28;20121;-76
2023/12/30 02:55:16;;;;;;;8.15;2.15;;;13.40;99.90;;;;;;4964436;28;20045;-76
2023/12/30 02:57:42;;;;;;;7.25;1.83;;;13.60;99.90;;;;;;4945248;28;20482;-77
2023/12/30 03:00:08;;;;;;;8.57;2.08;;;13.00;99.90;;;;;;4953958;28;20035;-76
2023/12/30 03:02:33;;;;;;;11.02;2.38;;;13.10;99.90;;;;;;4970111;28;20054;-76
2023/12/30 03:04:59;;;;;;;6.68;1.98;;;13.60;99.90;;;;;;4955074;28;20498;-77
2023/12/30 03:07:26;;;;;;;5.38;1.65;;;13.10;99.90;;;;;;4948045;28;20040;-76
2023/12/30 03:09:51;;;;;;;7.32;1.90;;;13.30;99.90;;;;;;4954850;28;20049;-77
2023/12/30 03:12:17;;;;;;;7.53;1.70;;;13.10;99.90;;;;;;4962896;28;20125;-77
2023/12/30 03:14:43;;;;;;;7.28;1.60;;;13.10;99.90;;;;;;4973408;28;20406;-76
2023/12/30 03:17:09;;;;;;;10.43;2.45;;;13.50;99.90;;;;;;4951459;28;20642;-78
2023/12/30 03:19:35;;;;;;;6.45;1.73;;;13.20;99.90;;;;;;4968411;28;20577;-76
2023/12/30 03:22:01;;;;;;;6.88;1.80;;;13.30;99.90;;;;;;4968944;28;20105;-76
2023/12/30 03:24:26;;;;;;;7.60;1.90;;;13.00;99.90;;;;;;4951666;28;20121;-76
2023/12/30 03:26:53;;;;;;;7.13;2.03;;;13.00;99.90;;;;;;4972011;28;20094;-76
2023/12/30 03:29:20;;;;;;;9.75;2.25;;;13.60;99.90;;;;;;4973464;28;20049;-77
2023/12/30 03:31:45;;;;;;;8.00;2.13;;;13.20;99.90;;;;;;4998375;28;20042;-76
2023/12/30 03:34:11;;;;;;;7.65;2.55;;;13.00;99.90;;;;;;4973720;28;20034;-76
2023/12/30 03:36:37;;;;;;;7.18;1.88;;;12.90;99.90;;;;;;4972598;28;20398;-76
2023/12/30 03:39:04;;;;;;;8.27;2.20;;;12.90;99.90;;;;;;4956588;28;20170;-76
2023/12/30 03:41:29;;;;;;;5.68;1.73;;;12.90;99.90;;;;;;4958411;28;20030;-76
2023/12/30 03:43:55;;;;;;;7.13;1.80;;;13.60;99.90;;;;;;4968754;28;20173;-76
2023/12/30 03:46:23;;;;;;;7.32;2.08;;;12.80;99.90;;;;;;4973732;28;20037;-76
2023/12/30 03:48:48;;;;;;;7.97;1.80;;;13.40;99.90;;;;;;4969637;28;20077;-77
2023/12/30 03:51:14;;;;;;;6.38;1.70;;;13.00;99.90;;;;;;4970265;28;20491;-76
2023/12/30 03:53:41;;;;;;;7.90;2.45;;;12.80;99.90;;;;;;4970688;28;20078;-76
2023/12/30 03:56:06;;;;;;;6.75;1.73;;;13.10;99.90;;;;;;4971940;28;20039;-77
2023/12/30 03:58:32;;;;;;;7.43;2.20;;;13.20;99.90;;;;;;4972928;28;20173;-76
2023/12/30 04:00:58;;;;;;;5.60;1.80;;;13.00;99.90;;;;;;4972663;28;20069;-76
2023/12/30 04:03:23;;;;;;;6.13;1.98;;;12.90;99.90;;;;;;4972829;28;20126;-76
2023/12/30 04:05:49;;;;;;;8.32;1.88;;;12.90;99.90;;;;;;4973267;28;20077;-77
2023/12/30 04:08:14;;;;;;;7.15;1.80;;;12.80;99.90;;;;;;4975269;28;21207;-76
2023/12/30 04:10:40;;;;;;;6.43;2.00;;;12.90;99.90;;;;;;4959061;28;20039;-76
2023/12/30 04:13:06;;;;;;;7.10;1.85;;;13.10;99.90;;;;;;4972138;28;20056;-76
2023/12/30 04:15:31;;;;;;;6.57;1.98;;;13.20;99.90;;;;;;4955748;28;20379;-76
2023/12/30 04:17:57;;;;;;;7.75;1.90;;;13.00;99.90;;;;;;4972154;28;20490;-76
2023/12/30 04:20:23;;;;;;;7.57;2.00;;;12.90;99.90;;;;;;4974520;28;20046;-76
2023/12/30 04:22:48;;;;;;;8.02;1.80;;;13.60;99.90;;;;;;4976824;28;20063;-76
2023/12/30 04:25:14;;;;;;;7.35;2.00;;;12.70;99.90;;;;;;4959932;28;20042;-76
2023/12/30 04:27:40;;;;;;;6.10;1.70;;;;;;;;;;4977956;28;20055;-76
2023/12/30 04:30:06;;;;;;;8.10;2.55;;;13.00;99.90;;;;;;4972354;28;20047;-76
2023/12/30 04:32:32;;;;;;;7.05;2.10;;;12.60;99.90;;;;;;4956278;28;20035;-76
2023/12/30 04:34:58;;;;;;;7.15;2.38;;;13.50;99.90;;;;;;4973193;28;20035;-76
2023/12/30 04:37:23;;;;;;;8.95;2.08;;;12.70;99.90;;;;;;4975167;28;20034;-76
2023/12/30 04:39:49;;;;;;;7.45;1.98;;;13.20;99.90;;;;;;4961081;28;20128;-77
2023/12/30 04:42:15;;;;;;;11.23;2.15;;;12.90;99.90;;;;;;4974802;28;20030;-77
2023/12/30 04:44:41;;;;;;;6.15;1.83;;;12.80;99.90;;;;;;4975521;28;20042;-77
2023/12/30 04:47:07;;;;;;;7.38;1.98;;;13.70;99.90;;;;;;4971982;28;20091;-77
2023/12/30 04:49:32;;;;;;;6.47;1.80;;;12.80;99.90;;;;;;4977257;28;20098;-76
2023/12/30 04:51:58;;;;;;;8.38;2.00;;;13.20;99.90;;;;;;4975961;28;20351;-76
2023/12/30 04:54:25;;;;;;;5.55;1.40;;;13.70;99.90;;;;;;4976367;28;20098;-77
2023/12/30 04:56:51;;;;;;;5.07;1.40;;;12.80;99.90;;;;;;4971807;28;20043;-76
2023/12/30 04:59:18;;;;;;;6.70;1.60;;;13.10;99.90;;;;;;4972217;28;20039;-77
2023/12/30 05:01:43;;;;;;;7.28;2.70;;;13.20;99.90;;;;;;4956298;28;20730;-77
2023/12/30 05:04:09;;;;;;;9.02;2.85;;;13.30;99.90;;;;;;4971920;28;20070;-77
2023/12/30 05:06:34;;;;;;;5.38;2.10;;;12.80;99.90;;;;;;4974498;28;20141;-77
2023/12/30 05:09:01;;;;;;;8.80;2.00;;;12.90;99.90;;;;;;4979918;28;20031;-76
2023/12/30 05:11:26;;;;;;;6.28;1.58;;;13.60;99.90;;;;;;4962980;28;20062;-76
2023/12/30 05:13:52;;;;;;;6.43;2.35;;;12.90;99.90;;;;;;4976304;28;20038;-76
2023/12/30 05:16:18;;;;;;;5.93;1.85;;;13.20;99.90;;;;;;4974458;28;20049;-75
2023/12/30 05:18:43;;;;;;;5.85;1.60;;;13.70;99.90;;;;;;4968847;28;20046;-77
2023/12/30 05:21:15;;;;;;;7.93;2.10;;;12.50;99.90;;;;;;4971727;28;20462;-77
2023/12/30 05:23:42;;;;;;;6.88;2.03;;;12.70;99.90;;;;;;4969357;28;20162;-77
2023/12/30 05:26:07;;;;;;;6.78;2.38;;;12.70;99.90;;;;;;4971838;28;20552;-77
2023/12/30 05:28:34;;;;;;;5.40;1.65;;;12.70;99.90;;;;;;4975329;28;20141;-76
2023/12/30 05:30:59;;;;;;;7.43;1.90;;;12.90;99.90;;;;;;4973863;28;20522;-76
2023/12/30 05:33:26;;;;;;;6.78;1.77;;;13.20;99.90;;;;;;4973410;28;20042;-76
2023/12/30 05:35:52;;;;;;;7.25;1.70;;;12.80;99.90;;;;;;4973975;28;20046;-77
2023/12/30 05:38:18;;;;;;;7.53;1.75;;;12.50;99.90;;;;;;4970392;28;20043;-77
2023/12/30 05:40:44;;;;;;;6.35;1.75;;;12.50;99.90;;;;;;4973542;28;20126;-76
2023/12/30 05:43:09;;;;;;;7.22;2.00;;;12.70;99.90;;;;;;4970225;28;20050;-77
2023/12/30 05:45:35;;;;;;;6.38;2.03;;;12.80;99.90;;;;;;4974032;28;20033;-77
2023/12/30 05:48:02;;;;;;;7.38;2.08;;;13.60;99.90;;;;;;4973750;28;20050;-76
2023/12/30 05:50:28;;;;;;;6.50;2.00;;;13.10;99.90;;;;;;4970652;28;20042;-76
2023/12/30 05:52:54;;;;;;;7.55;2.00;;;12.90;99.90;;;;;;4954109;28;20509;-76
2023/12/30 05:55:20;;;;;;;6.35;1.80;;;14.30;99.90;;;;;;4976340;28;20846;-77
2023/12/30 05:57:47;;;;;;;7.45;1.92;;;13.50;99.90;;;;;;4968806;28;20410;-76
2023/12/30 06:00:13;;;;;;;6.70;1.50;;;12.90;99.90;;;;;;4972077;28;20054;-77
2023/12/30 06:02:40;;;;;;;5.82;1.52;;;13.20;99.90;;;;;;5002597;28;20044;-77
2023/12/30 06:05:06;;;;;;;6.80;1.92;;;12.70;99.90;;;;;;4968902;28;20039;-76
2023/12/30 06:07:31;;;;;;;6.80;1.63;;;13.40;99.90;;;;;;4972160;28;20043;-77
2023/12/30 06:09:57;;;;;;;5.55;1.92;;;13.40;99.90;;;;;;4971859;28;20039;-76
2023/12/30 06:12:23;;;;;;;6.60;1.88;;;12.60;99.90;;;;;;4955700;28;20035;-77
2023/12/30 06:14:49;;;;;;;6.03;2.20;;;13.40;99.90;;;;;;4974204;28;20423;-77
2023/12/30 06:17:15;;;;;;;6.38;1.75;;;12.80;99.90;;;;;;4973746;28;20055;-77
2023/12/30 06:19:40;;;;;;;8.13;1.67;;;13.10;99.90;;;;;;4973184;28;20138;-76
2023/12/30 06:22:06;;;;;;;7.38;2.25;;;12.90;99.90;;;;;;4973045;28;20049;-77
2023/12/30 06:24:33;;;;;;;5.75;1.50;;;13.80;99.90;;;;;;4969983;28;20042;-77
2023/12/30 06:27:01;;;;;;;6.32;1.95;;;13.50;99.90;;;;;;4973753;28;20089;-77
2023/12/30 06:29:27;;;;;;;7.95;2.05;;;13.10;99.90;;;;;;4970322;28;20035;-76
2023/12/30 06:31:53;;;;;;;5.45;1.80;;;12.70;99.90;;;;;;4972630;28;20034;-76
2023/12/30 06:34:19;;;;;;;6.22;1.90;;;13.90;99.90;;;;;;4969840;28;20039;-76
2023/12/30 06:36:45;;;;;;;6.07;1.90;;;13.70;99.90;;;;;;4971920;28;20390;-77
2023/12/30 06:39:15;;;;;;;7.93;1.75;;;13.60;99.90;;;;;;4970333;28;20039;-77
2023/12/30 06:41:41;;;;;;;7.03;2.08;;;13.70;99.90;;;;;;4953116;28;20045;-77
2023/12/30 06:44:08;;;;;;;7.00;1.85;;;13.10;99.90;;;;;;4972516;28;20050;-77
2023/12/30 06:46:34;;;;;;;5.20;1.70;;;13.90;99.90;;;;;;4971421;28;20043;-76
2023/12/30 06:49:00;;;;;;;8.32;1.50;;;13.70;99.90;;;;;;4969828;28;20047;-77
2023/12/30 06:51:27;;;;;;;5.93;1.58;;;13.10;99.90;;;;;;4973920;28;20502;-77
2023/12/30 06:53:53;;;;;;;4.63;1.40;;;13.60;99.90;;;;;;4954183;28;20070;-76
2023/12/30 06:56:19;;;;;;;6.95;1.60;;;13.20;99.90;;;;;;4950446;28;20646;-77
2023/12/30 06:58:45;;;;;;;7.70;1.75;;;12.90;99.90;;;;;;4971409;28;20042;-76
2023/12/30 07:01:14;;;;;;;7.18;1.95;;;13.30;99.90;;;;;;4969494;28;20121;-77
2023/12/30 07:03:40;;;;;;;5.55;1.70;;;12.90;99.90;;;;;;4972666;28;20842;-77
2023/12/30 07:06:06;;;;;;;5.88;1.65;;;13.60;99.90;;;;;;4967812;28;20116;-77
2023/12/30 07:08:32;;;;;;;6.68;1.60;;;13.70;99.90;;;;;;4970569;28;20117;-77
2023/12/30 07:10:58;;;;;;;6.53;1.80;;;13.80;99.90;;;;;;4971076;28;20523;-77
2023/12/30 07:13:24;;;;;;;6.47;1.85;;;13.60;99.90;;;;;;4977284;28;20161;-76
2023/12/30 07:15:50;;;;;;;6.47;1.73;;;13.90;99.90;;;;;;4969108;28;20430;-77
2023/12/30 07:18:19;;;;;;;6.15;1.70;;;12.90;99.90;;;;;;4968297;28;20043;-76
2023/12/30 07:20:44;;;;;;;6.22;1.80;;;13.50;99.90;;;;;;4967539;28;20361;-76
2023/12/30 07:23:10;;;;;;;6.07;1.98;;;12.90;99.90;;;;;;4969210;28;20035;-77
2023/12/30 07:25:36;;;;;;;5.22;1.55;;;14.30;99.90;;;;;;4969626;28;20119;-77
2023/12/30 07:28:02;;;;;;;5.75;1.55;;;13.10;99.90;;;;;;4968875;28;20051;-77
2023/12/30 07:30:28;;;;;;;6.05;1.60;;;13.90;99.90;;;;;;4973951;28;20109;-76
2023/12/30 07:32:53;;;;;;;7.78;1.70;;;13.00;99.90;;;;;;4974412;28;20046;-77
2023/12/30 07:35:19;;;;;;;7.60;1.80;;;13.80;99.90;;;;;;4972637;28;20097;-77
2023/12/30 07:37:48;;;;;;;7.30;2.00;;;13.90;99.90;;;;;;4954607;28;20034;-77
2023/12/30 07:40:14;;;;;;;7.13;1.75;;;13.60;99.90;;;;;;4971849;28;20034;-76
2023/12/30 07:42:40;;;;;;;6.72;1.80;;;14.20;99.90;;;;;;4988382;28;20035;-77
2023/12/30 07:45:06;;;;;;;6.53;1.50;;;13.80;99.90;;;;;;4973191;28;20094;-76
2023/12/30 07:47:33;;;;;;;5.25;1.52;;;13.20;99.90;;;;;;4971557;28;20134;-77
2023/12/30 07:49:59;;;;;;;6.28;2.13;;;13.60;99.90;;;;;;4956225;28;20034;-76
2023/12/30 07:52:25;;;;;;;6.18;1.80;;;13.00;99.90;;;;;;4972674;28;20536;-77
2023/12/30 07:54:51;;;;;;;6.00;1.83;;;13.40;99.90;;;;;;4971241;28;20038;-77
2023/12/30 07:57:17;;;;;;;7.43;2.88;;;13.40;99.90;;;;;;4970254;28;20074;-77
2023/12/30 07:59:43;;;;;;;6.25;2.03;;;14.00;99.90;;;;;;4968137;28;20066;-77
2023/12/30 08:02:08;;;;;;;5.75;1.75;;;13.30;99.90;;;;;;4955892;28;20450;-77
2023/12/30 08:04:34;;;;;;;6.47;1.88;;;13.80;99.90;;;;;;4972937;28;20639;-76
2023/12/30 08:06:59;;;;;;;4.22;1.48;;;13.70;99.90;;;;;;4971843;28;20141;-77
2023/12/30 08:09:25;;;;;;;7.93;1.73;;;13.90;99.90;;;;;;4973255;28;20039;-77
2023/12/30 08:11:51;;;;;;;6.68;1.75;;;13.70;99.90;;;;;;4972716;28;20066;-77
2023/12/30 08:14:17;;;;;;;7.50;1.95;;;13.90;99.90;;;;;;4970740;28;20043;-76
2023/12/30 08:16:43;;;;;;;6.55;1.73;;;13.50;99.90;;;;;;4952804;28;20049;-76
2023/12/30 08:19:09;;;;;;;6.05;1.80;;;13.60;99.90;;;;;;4970437;28;20089;-77
2023/12/30 08:21:35;;;;;;;6.05;1.58;;;13.40;99.90;;;;;;4975292;28;20117;-76
2023/12/30 08:24:01;;;;;;;14.13;2.97;;;13.40;99.90;;;;;;4970195;28;20043;-77
2023/12/30 08:26:27;;;;;;;11.20;2.58;;;13.30;99.90;;;;;;4970904;28;20382;-77
2023/12/30 08:28:54;;;;;;;21.65;7.25;;;13.80;1.00;;;;;;4970529;28;20418;-76
2023/12/30 08:31:21;;;;;;;44.15;10.23;;;13.60;1.00;;;;;;4974369;28;20034;-76
2023/12/30 08:33:47;;;;;;;31.90;8.55;;;14.00;1.00;;;;;;4967755;28;20030;-76
2023/12/30 08:36:13;;;;;;;29.65;7.68;;;13.80;1.00;;;;;;4959805;28;20466;-76
2023/12/30 08:38:38;;;;;;;30.77;8.35;;;14.20;1.00;;;;;;4974146;28;20077;-76
2023/12/30 08:41:04;;;;;;;24.17;8.73;;;14.50;1.00;;;;;;4966366;28;20062;-76
2023/12/30 08:43:30;;;;;;;22.27;6.93;;;13.60;1.00;;;;;;4979513;28;20517;-76
2023/12/30 08:45:58;;;;;;;23.95;7.88;;;13.90;1.00;;;;;;4972306;28;20387;-77
2023/12/30 08:48:23;;;;;;;23.90;7.75;;;13.70;1.00;;;;;;4956085;28;20462;-76
2023/12/30 08:50:49;;;;;;;24.95;7.32;;;13.90;1.00;;;;;;4952112;28;20035;-76
2023/12/30 08:53:18;;;;;;;30.38;7.72;;;14.30;1.00;;;;;;4963918;28;20050;-76
2023/12/30 08:55:43;;;;;;;26.88;6.78;;;14.40;1.00;;;;;;4971614;28;20065;-76
2023/12/30 08:58:09;;;;;;;18.00;6.20;;;13.80;1.00;;;;;;4968799;28;20043;-75
2023/12/30 09:00:35;;;;;;;20.73;5.82;;;14.00;1.00;;;;;;4973822;28;20041;-76
2023/12/30 09:03:01;;;;;;;15.43;5.43;;;14.60;1.00;;;;;;4970169;28;20074;-76
2023/12/30 09:05:26;;;;;;;18.52;5.53;;;14.00;1.00;;;;;;4966243;28;20031;-76
2023/12/30 09:07:52;;;;;;;19.27;6.13;;;13.70;1.00;;;;;;4967406;28;20049;-77
2023/12/30 09:10:18;;;;;;;18.13;5.82;;;14.10;1.00;;;;;;4964988;28;20038;-76
2023/12/30 09:12:45;;;;;;;15.82;5.53;;;14.40;1.00;;;;;;4964519;28;20034;-76
2023/12/30 09:15:11;;;;;;;17.70;5.45;;;14.50;1.00;;;;;;4968404;28;20042;-76
2023/12/30 09:17:36;;;;;;;17.15;6.13;;;14.70;1.00;;;;;;4972825;28;20041;-76
2023/12/30 09:20:03;;;;;;;18.95;5.35;;;14.20;1.00;;;;;;4972852;28;20093;-76
2023/12/30 09:22:29;;;;;;;16.15;5.20;;;14.40;1.00;;;;;;4972164;28;20034;-76
2023/12/30 09:24:55;;;;;;;19.20;5.43;;;14.20;1.00;;;;;;4972791;28;20042;-76
2023/12/30 09:27:21;;;;;;;27.58;7.82;;;14.40;1.00;;;;;;4974240;28;20043;-77
2023/12/30 09:29:47;;;;;;;26.15;8.80;;;15.10;1.00;;;;;;4966569;28;20049;-77
2023/12/30 09:32:12;;;;;;;19.35;5.07;;;14.30;1.00;;;;;;4972747;28;20038;-77
2023/12/30 09:34:38;;;;;;;15.60;3.95;;;14.30;1.00;;;;;;4969113;28;20534;-78
2023/12/30 09:37:04;;;;;;;13.95;3.42;;;14.40;1.00;;;;;;4952616;28;20412;-77
2023/12/30 09:39:29;;;;;;;13.32;3.80;;;13.90;1.00;;;;;;4971706;28;20097;-77
2023/12/30 09:41:56;;;;;;;13.60;2.85;;;13.90;1.00;;;;;;4968907;28;20076;-78
2023/12/30 09:44:23;;;;;;;10.77;2.80;;;14.20;1.00;;;;;;4951770;28;20035;-77
2023/12/30 09:46:50;;;;;;;13.63;2.88;;;14.00;1.00;;;;;;4970856;28;20467;-77
2023/12/30 09:49:17;;;;;;;10.80;2.83;;;14.10;1.00;;;;;;4973572;28;20042;-77
2023/12/30 09:51:43;;;;;;;10.90;2.40;;;13.90;1.00;;;;;;4968344;28;20050;-77
2023/12/30 09:54:10;;;;;;;11.35;2.72;;;13.00;99.90;;;;;;4954871;28;20039;-77
2023/12/30 09:56:36;;;;;;;12.30;2.85;;;13.00;99.90;;;;;;4972289;28;20050;-77
2023/12/30 09:59:02;;;;;;;10.27;2.47;;;13.20;99.90;;;;;;4971599;28;20035;-77
2023/12/30 10:01:30;;;;;;;9.38;2.15;;;13.50;99.90;;;;;;4950347;28;20044;-77
2023/12/30 10:03:55;;;;;;;7.75;2.00;;;13.00;99.90;;;;;;4971603;28;20096;-77
2023/12/30 10:06:25;;;;;;;10.82;2.38;;;12.90;99.90;;;;;;4969912;28;20035;-77
2023/12/30 10:08:51;;;;;;;10.63;2.00;;;13.40;99.90;;;;;;4967174;28;20081;-77
2023/12/30 10:11:17;;;;;;;8.55;2.28;;;12.80;99.90;;;;;;4966099;28;20498;-77
2023/12/30 10:13:43;;;;;;;9.63;1.83;;;13.10;99.90;;;;;;4968045;28;20166;-77
2023/12/30 10:16:09;;;;;;;13.27;2.72;;;13.40;99.90;;;;;;4969144;28;21118;-78
2023/12/30 10:18:39;;;;;;;9.32;2.35;;;13.20;99.90;;;;;;4953908;28;20042;-77
2023/12/30 10:21:07;;;;;;;8.75;2.33;;;13.10;99.90;;;;;;4970344;28;20035;-77
2023/12/30 10:23:36;;;;;;;10.90;1.98;;;12.40;99.90;;;;;;4966868;28;20056;-77
2023/12/30 10:26:02;;;;;;;12.73;2.63;;;12.70;99.90;;;;;;4949043;28;20498;-77
2023/12/30 10:28:28;;;;;;;7.45;1.83;;;12.30;99.90;;;;;;4964739;28;20042;-77
2023/12/30 10:31:05;;;;;;;6.57;2.15;;;12.60;99.90;;;;;;4966707;28;20525;-77
2023/12/30 10:33:32;;;;;;;11.88;2.40;;;12.80;99.90;;;;;;4969383;28;20094;-77
2023/12/30 10:35:58;;;;;;;10.77;2.40;;;13.80;99.90;;;;;;4971085;28;20114;-77
2023/12/30 10:38:25;;;;;;;8.07;1.98;;;12.50;99.90;;;;;;4955282;28;20142;-77
2023/12/30 10:40:50;;;;;;;6.20;1.90;;;12.70;99.90;;;;;;4971165;28;20039;-77
2023/12/30 10:43:18;;;;;;;10.13;2.10;;;14.30;99.90;;;;;;4971438;28;20109;-77
2023/12/30 10:45:58;;;;;;;10.55;2.20;;;12.90;99.90;;;;;;4969709;28;20054;-77
2023/12/30 10:48:32;;;;;;;16.23;2.42;;;12.10;99.90;;;;;;4970427;28;20058;-77
2023/12/30 10:50:59;;;;;;;9.00;2.20;;;12.40;99.90;;;;;;4970441;28;20197;-78
2023/12/30 10:53:46;;;;;;;9.10;2.25;;;12.80;99.90;;;;;;4956343;28;20053;-77
2023/12/30 10:56:21;;;;;;;9.30;2.22;;;12.40;99.90;;;;;;4966115;28;20079;-78
2023/12/30 10:58:50;;;;;;;6.82;1.85;;;12.50;99.90;;;;;;4972260;28;20046;-77
2023/12/30 11:01:16;;;;;;;9.13;1.70;;;12.40;99.90;;;;;;4970403;28;20057;-77
2023/12/30 11:03:42;;;;;;;7.63;2.50;;;12.70;99.90;;;;;;4974056;28;20124;-77
2023/12/30 11:06:18;;;;;;;6.85;1.75;;;12.70;99.90;;;;;;4959323;28;20455;-77
2023/12/30 11:08:44;;;;;;;6.53;1.65;;;12.00;99.90;;;;;;4960109;28;20046;-77
2023/12/30 11:11:17;;;;;;;8.77;2.05;;;12.40;99.90;;;;;;4975639;28;20121;-77
2023/12/30 11:13:44;;;;;;;8.63;2.15;;;12.40;99.90;;;;;;4976646;28;20118;-77
2023/12/30 11:16:16;;;;;;;7.97;2.50;;;12.90;99.90;;;;;;4974776;28;20052;-77
2023/12/30 11:18:53;;;;;;;9.85;2.25;;;12.90;99.90;;;;;;4973355;28;20046;-77
2023/12/30 11:21:37;;;;;;;8.68;2.05;;;12.40;99.90;;;;;;4976122;28;20036;-77
2023/12/30 11:24:08;;;;;;;12.68;2.40;;;12.40;99.90;;;;;;4975042;28;20043;-76
2023/12/30 11:26:36;;;;;;;10.60;2.20;;;12.90;99.90;;;;;;4976566;28;20050;-77
2023/12/30 11:29:03;;;;;;;10.38;2.10;;;13.00;99.90;;;;;;4976179;28;20062;-77
2023/12/30 11:31:36;;;;;;;9.63;1.85;;;12.30;99.90;;;;;;4975516;28;20042;-77
2023/12/30 11:34:04;;;;;;;7.15;1.88;;;12.60;99.90;;;;;;4975607;28;20494;-77
2023/12/30 11:36:30;;;;;;;9.77;1.83;;;12.80;99.90;;;;;;4975969;28;20077;-77
2023/12/30 11:38:58;;;;;;;7.20;1.70;;;12.40;99.90;;;;;;4960346;28;20035;-77
2023/12/30 11:41:24;;;;;;;8.82;1.73;;;12.40;99.90;;;;;;4975716;28;20141;-77
2023/12/30 11:43:50;;;;;;;6.57;1.52;;;12.80;99.90;;;;;;4975904;28;20035;-77
2023/12/30 11:46:16;;;;;;;5.55;1.42;;;12.50;99.90;;;;;;4976845;28;20098;-77
2023/12/30 11:48:43;;;;;;;10.15;1.73;;;13.40;99.90;;;;;;4976059;28;20093;-77
2023/12/30 11:51:09;;;;;;;6.95;1.63;;;12.50;99.90;;;;;;4976798;28;20485;-77
2023/12/30 11:53:35;;;;;;;7.07;1.70;;;12.20;99.90;;;;;;4976534;28;20078;-77
2023/12/30 11:56:04;;;;;;;7.35;1.80;;;13.30;99.90;;;;;;4976218;28;20511;-77
2023/12/30 11:58:29;;;;;;;7.38;1.50;;;12.60;99.90;;;;;;4962922;28;20083;-77
2023/12/30 12:00:55;;;;;;;8.50;1.80;;;12.50;99.90;;;;;;4978427;28;20519;-77
2023/12/30 12:03:21;;;;;;;7.40;1.83;;;13.40;99.90;;;;;;4959882;28;20050;-77
2023/12/30 12:05:46;;;;;;;7.97;1.70;;;12.60;99.90;;;;;;4960683;28;20039;-77
2023/12/30 12:08:12;;;;;;;7.13;1.90;;;13.10;99.90;;;;;;4976362;28;20039;-77
2023/12/30 12:10:38;;;;;;;6.35;1.98;;;12.70;99.90;;;;;;4954721;28;20130;-77
2023/12/30 12:13:09;;;;;;;10.55;2.25;;;12.70;99.90;;;;;;4976365;28;20414;-77
2023/12/30 12:15:34;;;;;;;10.27;2.00;;;12.80;99.90;;;;;;4973846;28;20492;-77
2023/12/30 12:18:00;;;;;;;8.25;2.35;;;12.70;99.90;;;;;;4972883;28;20066;-77
2023/12/30 12:20:26;;;;;;;9.52;1.80;;;12.40;99.90;;;;;;4973384;28;20184;-77
2023/12/30 12:22:55;;;;;;;10.07;1.88;;;12.30;99.90;;;;;;4956667;28;20117;-77
2023/12/30 12:25:24;;;;;;;7.63;2.08;;;13.10;99.90;;;;;;4972553;28;20039;-77
2023/12/30 12:27:49;;;;;;;9.77;2.10;;;12.80;99.90;;;;;;4972863;28;20065;-77
2023/12/30 12:30:16;;;;;;;9.55;1.90;;;13.30;99.90;;;;;;4956396;28;20122;-77
2023/12/30 12:32:42;;;;;;;7.70;2.45;;;12.30;99.90;;;;;;4956458;28;20052;-77
2023/12/30 12:35:07;;;;;;;6.18;1.75;;;13.00;99.90;;;;;;4973218;28;20039;-77
2023/12/30 12:37:33;;;;;;;10.10;1.65;;;13.30;99.90;;;;;;4971479;28;20502;-77
2023/12/30 12:39:59;;;;;;;6.53;1.65;;;12.40;99.90;;;;;;4956401;28;20038;-77
2023/12/30 12:42:27;;;;;;;5.82;1.55;;;12.70;99.90;;;;;;4972199;28;20042;-77